createdAt,value
2022-08-09T00:00:04.742Z,45.60
2022-08-09T00:02:42.811Z,45.50
2022-08-09T00:06:18.878Z,45.60
2022-08-09T00:08:09.860Z,45.60
2022-08-09T00:10:38.316Z,45.50
2022-08-09T00:13:06.617Z,45.50
2022-08-09T00:15:59.970Z,45.50
2022-08-09T00:18:30.496Z,45.50
2022-08-09T00:21:00.556Z,45.50
2022-08-09T00:23:57.829Z,45.50
2022-08-09T00:26:16.361Z,45.50
2022-08-09T00:28:52.726Z,45.50
2022-08-09T00:31:56.961Z,45.40
2022-08-09T00:34:10.944Z,46.10
2022-08-09T00:36:41.710Z,45.50
2022-08-09T00:39:16.940Z,45.50
2022-08-09T00:44:14.736Z,45.50
2022-08-09T00:44:46.841Z,45.40
2022-08-09T00:47:15.677Z,45.50
2022-08-09T00:49:54.594Z,45.50
2022-08-09T00:52:30.532Z,45.50
2022-08-09T00:54:58.916Z,45.50
2022-08-09T00:57:34.493Z,45.50
2022-08-09T01:00:05.448Z,45.50
2022-08-09T01:02:50.716Z,45.50
2022-08-09T01:05:22.283Z,45.50
2022-08-09T01:08:14.508Z,45.50
2022-08-09T01:10:47.016Z,45.50
2022-08-09T01:13:22.163Z,45.50
2022-08-09T01:15:52.449Z,45.50
2022-08-09T01:18:29.900Z,45.50
2022-08-09T01:21:05.264Z,45.50
2022-08-09T01:24:02.294Z,45.50
2022-08-09T01:26:53.069Z,45.50
2022-08-09T01:29:28.046Z,45.60
2022-08-09T01:32:29.526Z,45.50
2022-08-09T01:34:44.520Z,45.50
2022-08-09T01:37:14.539Z,45.50
2022-08-09T01:39:49.586Z,45.60
2022-08-09T01:42:18.976Z,45.60
2022-08-09T01:44:49.016Z,45.50
2022-08-09T01:47:17.438Z,45.50
2022-08-09T01:49:48.879Z,45.60
2022-08-09T01:52:22.283Z,46.10
2022-08-09T01:54:51.509Z,45.60
2022-08-09T01:57:24.300Z,45.50
2022-08-09T02:00:00.338Z,45.60
2022-08-09T02:02:41.246Z,45.50
2022-08-09T02:05:15.375Z,45.60
2022-08-09T02:08:39.345Z,45.60
2022-08-09T02:10:34.887Z,45.70
2022-08-09T02:13:06.796Z,45.70
2022-08-09T02:15:36.350Z,45.60
2022-08-09T02:18:18.329Z,45.60
2022-08-09T02:20:48.061Z,45.60
2022-08-09T02:23:18.711Z,45.60
2022-08-09T02:25:52.909Z,45.60
2022-08-09T02:28:27.932Z,45.60
2022-08-09T02:30:59.080Z,45.60
2022-08-09T02:33:38.427Z,45.70
2022-08-09T02:36:17.118Z,45.60
2022-08-09T02:38:48.964Z,45.70
2022-08-09T02:41:19.027Z,45.60
2022-08-09T02:43:54.725Z,45.70
2022-08-09T02:46:25.214Z,45.60
2022-08-09T02:48:56.673Z,45.60
2022-08-09T02:51:26.562Z,45.60
2022-08-09T02:54:00.776Z,45.60
2022-08-09T02:56:29.825Z,45.60
2022-08-09T02:58:58.967Z,45.70
2022-08-09T03:01:29.648Z,45.70
2022-08-09T03:04:17.288Z,45.60
2022-08-09T03:06:48.972Z,45.60
2022-08-09T03:09:17.284Z,45.70
2022-08-09T03:12:05.617Z,45.70
2022-08-09T03:14:36.629Z,45.80
2022-08-09T03:17:05.475Z,45.80
2022-08-09T03:19:52.631Z,45.80
2022-08-09T03:22:30.894Z,45.70
2022-08-09T03:25:05.743Z,45.80
2022-08-09T03:27:49.058Z,45.80
2022-08-09T03:30:29.228Z,45.80
2022-08-09T03:33:01.656Z,45.80
2022-08-09T03:36:11.100Z,45.90
2022-08-09T03:38:30.351Z,45.80
2022-08-09T03:40:58.902Z,45.90
2022-08-09T03:43:31.434Z,45.90
2022-08-09T03:46:04.854Z,45.90
2022-08-09T03:48:51.914Z,45.90
2022-08-09T03:51:44.017Z,45.90
2022-08-09T03:54:10.740Z,45.80
2022-08-09T03:56:39.107Z,45.90
2022-08-09T03:59:17.219Z,45.90
2022-08-09T04:01:50.883Z,45.90
2022-08-09T04:04:18.587Z,45.90
2022-08-09T04:06:48.774Z,45.90
2022-08-09T04:09:48.093Z,46.00
2022-08-09T04:12:36.698Z,45.90
2022-08-09T04:15:11.219Z,45.90
2022-08-09T04:17:47.551Z,46.00
2022-08-09T04:20:15.396Z,46.00
2022-08-09T04:22:44.258Z,45.90
2022-08-09T04:25:12.989Z,46.00
2022-08-09T04:27:42.053Z,46.00
2022-08-09T04:30:15.671Z,46.00
2022-08-09T04:32:45.827Z,46.00
2022-08-09T04:35:15.881Z,46.00
2022-08-09T04:37:45.346Z,46.00
2022-08-09T04:40:28.849Z,46.00
2022-08-09T04:43:02.484Z,46.00
2022-08-09T04:45:36.078Z,46.00
2022-08-09T04:48:19.028Z,46.00
2022-08-09T04:50:50.059Z,46.00
2022-08-09T04:53:17.924Z,46.10
2022-08-09T04:55:58.281Z,46.10
2022-08-09T04:58:27.062Z,46.00
2022-08-09T05:00:55.190Z,46.00
2022-08-09T05:03:40.322Z,46.00
2022-08-09T05:06:18.196Z,46.10
2022-08-09T05:09:00.022Z,46.00
2022-08-09T05:11:32.053Z,46.00
2022-08-09T05:14:00.307Z,46.00
2022-08-09T05:16:31.745Z,46.10
2022-08-09T05:19:00.608Z,46.00
2022-08-09T05:21:46.675Z,46.00
2022-08-09T05:24:15.255Z,46.00
2022-08-09T05:26:46.264Z,46.00
2022-08-09T05:29:22.211Z,46.00
2022-08-09T05:31:57.712Z,46.10
2022-08-09T05:34:31.224Z,46.00
2022-08-09T05:37:05.179Z,46.00
2022-08-09T05:39:39.519Z,46.00
2022-08-09T05:42:17.483Z,46.10
2022-08-09T05:44:51.624Z,46.10
2022-08-09T05:47:19.572Z,46.10
2022-08-09T05:50:32.177Z,46.10
2022-08-09T05:52:38.910Z,46.00
2022-08-09T05:55:08.513Z,46.10
2022-08-09T05:57:57.085Z,46.30
2022-08-09T06:00:24.423Z,46.10
2022-08-09T06:02:54.095Z,46.10
2022-08-09T06:05:49.952Z,46.10
2022-08-09T06:08:11.499Z,46.10
2022-08-09T06:10:39.389Z,46.10
2022-08-09T06:13:12.480Z,46.10
2022-08-09T06:15:47.191Z,46.10
2022-08-09T06:18:18.627Z,46.20
2022-08-09T06:20:54.324Z,46.20
2022-08-09T06:23:55.007Z,46.20
2022-08-09T06:26:14.018Z,46.20
2022-08-09T06:28:43.361Z,46.20
2022-08-09T06:31:11.407Z,46.80
2022-08-09T06:33:41.162Z,46.20
2022-08-09T06:36:11.988Z,46.30
2022-08-09T06:38:49.971Z,46.20
2022-08-09T06:41:20.450Z,46.20
2022-08-09T06:43:48.440Z,46.20
2022-08-09T06:46:40.285Z,46.20
2022-08-09T06:49:03.954Z,46.30
2022-08-09T06:51:33.710Z,46.20
2022-08-09T06:54:09.233Z,46.20
2022-08-09T06:56:45.436Z,46.30
2022-08-09T07:00:49.821Z,46.20
2022-08-09T07:02:04.348Z,46.20
2022-08-09T07:04:32.896Z,46.30
2022-08-09T07:07:01.076Z,46.20
2022-08-09T07:09:56.022Z,46.20
2022-08-09T07:12:22.030Z,46.20
2022-08-09T07:15:53.945Z,46.20
2022-08-09T07:17:56.432Z,46.30
2022-08-09T07:20:30.309Z,46.20
2022-08-09T07:22:59.272Z,46.20
2022-08-09T07:25:29.112Z,46.20
2022-08-09T07:27:56.871Z,46.10
2022-08-09T07:30:26.436Z,46.10
2022-08-09T07:33:00.600Z,46.20
2022-08-09T07:35:28.815Z,46.10
2022-08-09T07:38:07.550Z,46.20
2022-08-09T07:40:54.111Z,46.20
2022-08-09T07:43:29.109Z,46.20
2022-08-09T07:45:56.908Z,46.20
2022-08-09T07:48:31.642Z,46.10
2022-08-09T07:51:09.077Z,46.10
2022-08-09T07:54:06.585Z,46.10
2022-08-09T07:56:45.125Z,46.00
2022-08-09T07:59:33.529Z,46.10
2022-08-09T08:02:03.033Z,46.00
2022-08-09T08:04:33.031Z,46.00
2022-08-09T08:07:15.000Z,46.00
2022-08-09T08:09:54.935Z,46.00
2022-08-09T08:12:43.080Z,45.90
2022-08-09T08:15:13.794Z,46.00
2022-08-09T08:17:55.119Z,46.00
2022-08-09T08:20:29.420Z,45.90
2022-08-09T08:23:01.714Z,45.90
2022-08-09T08:25:43.768Z,46.00
2022-08-09T08:28:15.493Z,45.90
2022-08-09T08:30:47.516Z,45.90
2022-08-09T08:33:21.900Z,45.90
2022-08-09T08:35:58.785Z,45.90
2022-08-09T08:38:28.583Z,45.90
2022-08-09T08:40:56.516Z,45.80
2022-08-09T08:43:27.263Z,45.80
2022-08-09T08:46:00.139Z,45.80
2022-08-09T08:48:51.966Z,45.80
2022-08-09T08:51:22.605Z,45.80
2022-08-09T08:54:03.639Z,45.90
2022-08-09T08:56:35.202Z,45.80
2022-08-09T08:59:07.725Z,45.80
2022-08-09T09:01:52.714Z,45.80
2022-08-09T09:04:27.071Z,45.80
2022-08-09T09:06:56.579Z,45.70
2022-08-09T09:10:01.426Z,45.70
2022-08-09T09:12:16.484Z,45.60
2022-08-09T09:14:46.579Z,45.60
2022-08-09T09:17:16.558Z,45.60
2022-08-09T09:19:44.635Z,45.60
2022-08-09T09:22:13.829Z,45.60
2022-08-09T09:24:44.678Z,45.50
2022-08-09T09:28:03.807Z,45.60
2022-08-09T09:30:20.136Z,45.70
2022-08-09T09:33:15.803Z,45.60
2022-08-09T09:36:02.517Z,46.30
2022-08-09T09:38:41.835Z,45.70
2022-08-09T09:41:10.814Z,46.20
2022-08-09T09:43:41.282Z,45.60
2022-08-09T09:48:58.963Z,45.50
2022-08-09T09:51:38.576Z,45.50
2022-08-09T09:54:20.292Z,45.50
2022-08-09T09:56:53.456Z,45.50
2022-08-09T09:59:37.448Z,45.50
2022-08-09T10:02:07.260Z,45.50
2022-08-09T10:04:35.700Z,45.50
2022-08-09T10:07:10.076Z,45.50
2022-08-09T10:09:48.661Z,45.50
2022-08-09T10:12:28.655Z,45.50
2022-08-09T10:15:04.958Z,45.40
2022-08-09T10:17:50.992Z,45.40
2022-08-09T10:20:27.137Z,45.40
2022-08-09T10:23:02.138Z,45.40
2022-08-09T10:25:34.735Z,45.40
2022-08-09T10:28:19.072Z,45.40
2022-08-09T10:34:09.952Z,45.30
2022-08-09T10:36:24.883Z,45.10
2022-08-09T10:38:56.691Z,45.10
2022-08-09T10:41:28.105Z,45.10
2022-08-09T10:43:59.319Z,45.10
2022-08-09T10:46:55.707Z,45.10
2022-08-09T10:49:50.322Z,45.10
2022-08-09T10:52:28.037Z,45.10
2022-08-09T10:54:56.407Z,45.10
2022-08-09T10:57:24.199Z,45.10
2022-08-09T10:59:57.937Z,45.10
2022-08-09T11:03:27.766Z,45.00
2022-08-09T11:05:30.091Z,45.00
2022-08-09T11:08:00.761Z,45.10
2022-08-09T11:11:01.025Z,45.00
2022-08-09T11:13:50.873Z,44.90
2022-08-09T11:16:37.063Z,44.90
2022-08-09T11:19:07.925Z,44.80
2022-08-09T11:22:10.413Z,44.90
2022-08-09T11:25:08.297Z,44.80
2022-08-09T11:28:04.669Z,44.80
2022-08-09T11:30:34.619Z,44.90
2022-08-09T11:33:05.547Z,44.90
2022-08-09T11:35:51.673Z,44.90
2022-08-09T11:38:32.462Z,44.80
2022-08-09T11:41:04.369Z,44.90
2022-08-09T11:43:43.204Z,44.90
2022-08-09T11:46:11.020Z,44.70
2022-08-09T11:48:47.769Z,44.70
2022-08-09T11:51:38.228Z,44.70
2022-08-09T11:54:28.781Z,44.70
2022-08-09T11:57:56.398Z,44.60
2022-08-09T12:00:27.824Z,44.60
2022-08-09T12:02:56.269Z,44.70
2022-08-09T12:05:33.264Z,44.70
2022-08-09T12:08:08.196Z,44.70
2022-08-09T12:10:48.339Z,44.60
2022-08-09T12:14:10.681Z,45.20
2022-08-09T12:16:30.367Z,44.70
2022-08-09T12:18:58.779Z,44.80
2022-08-09T12:21:37.189Z,44.70
2022-08-09T12:24:08.739Z,44.70
2022-08-09T12:28:59.067Z,44.70
2022-08-09T12:29:52.635Z,44.50
2022-08-09T12:32:27.084Z,44.50
2022-08-09T12:34:59.407Z,44.50
2022-08-09T12:37:50.697Z,44.50
2022-08-09T12:40:23.378Z,44.50
2022-08-09T12:42:54.336Z,44.40
2022-08-09T12:45:33.295Z,44.40
2022-08-09T12:48:03.220Z,44.40
2022-08-09T12:50:30.897Z,44.40
2022-08-09T12:53:17.660Z,44.40
2022-08-09T12:56:14.701Z,44.40
2022-08-09T12:58:35.248Z,44.40
2022-08-09T13:01:28.256Z,44.40
2022-08-09T13:03:59.173Z,44.30
2022-08-09T13:06:34.225Z,44.40
2022-08-09T13:09:10.973Z,44.40
2022-08-09T13:11:42.442Z,44.40
2022-08-09T13:14:41.697Z,44.40
2022-08-09T13:17:04.911Z,44.30
2022-08-09T13:20:10.675Z,44.40
2022-08-09T13:22:37.623Z,44.30
2022-08-09T13:25:14.179Z,44.40
2022-08-09T13:27:55.143Z,44.40
2022-08-09T13:30:50.439Z,44.40
2022-08-09T13:33:22.435Z,44.50
2022-08-09T13:36:37.348Z,44.50
2022-08-09T13:38:54.894Z,44.40
2022-08-09T13:41:57.741Z,44.50
2022-08-09T13:44:13.683Z,44.50
2022-08-09T13:47:29.403Z,44.50
2022-08-09T13:49:37.950Z,44.40
2022-08-09T13:52:19.359Z,44.50
2022-08-09T13:54:59.227Z,44.40
2022-08-09T13:57:37.179Z,44.40
2022-08-09T14:00:13.158Z,44.40
2022-08-09T14:03:17.217Z,44.50
2022-08-09T14:05:58.427Z,44.50
2022-08-09T14:08:19.091Z,44.50
2022-08-09T14:10:51.864Z,44.50
2022-08-09T14:14:15.405Z,44.50
2022-08-09T14:16:14.274Z,44.60
2022-08-09T14:18:50.262Z,44.50
2022-08-09T14:21:20.323Z,44.50
2022-08-09T14:23:55.479Z,44.50
2022-08-09T14:26:31.659Z,44.50
2022-08-09T14:29:01.971Z,44.50
2022-08-09T14:31:35.900Z,44.50
2022-08-09T14:34:27.299Z,44.50
2022-08-09T14:36:59.737Z,44.50
2022-08-09T14:39:40.419Z,44.50
2022-08-09T14:42:32.095Z,44.50
2022-08-09T14:46:46.334Z,44.50
2022-08-09T14:47:58.925Z,44.50
2022-08-09T14:50:30.415Z,44.50
2022-08-09T14:52:58.707Z,44.50
2022-08-09T14:55:32.259Z,44.50
2022-08-09T14:58:03.025Z,44.50
2022-08-09T15:00:31.844Z,44.50
2022-08-09T15:03:01.091Z,44.50
2022-08-09T15:05:30.201Z,44.50
2022-08-09T15:07:58.303Z,44.50
2022-08-09T15:10:26.318Z,44.50
2022-08-09T15:12:54.045Z,44.50
2022-08-09T15:15:21.910Z,44.50
2022-08-09T15:17:52.395Z,44.40
2022-08-09T15:21:56.706Z,44.50
2022-08-09T15:24:01.742Z,44.60
2022-08-09T15:25:58.529Z,44.60
2022-08-09T15:28:28.192Z,44.50
2022-08-09T15:31:08.816Z,44.60
2022-08-09T15:34:18.133Z,44.60
2022-08-09T15:36:30.884Z,44.60
2022-08-09T15:39:00.487Z,44.50
2022-08-09T15:41:31.486Z,44.50
2022-08-09T15:44:00.309Z,44.60
2022-08-09T15:46:34.143Z,44.50
2022-08-09T15:49:22.558Z,44.60
2022-08-09T15:52:03.406Z,44.60
2022-08-09T15:54:46.627Z,44.50
2022-08-09T15:57:19.008Z,44.50
2022-08-09T16:00:01.793Z,44.60
2022-08-09T16:02:32.499Z,44.60
2022-08-09T16:05:04.181Z,44.50
2022-08-09T16:07:39.470Z,44.60
2022-08-09T16:10:11.114Z,44.60
2022-08-09T16:12:50.310Z,44.70
2022-08-09T16:16:10.620Z,44.70
2022-08-09T16:18:06.296Z,44.70
2022-08-09T16:20:36.386Z,44.70
2022-08-09T16:23:05.924Z,44.70
2022-08-09T16:25:39.660Z,44.70
2022-08-09T16:28:12.181Z,44.70
2022-08-09T16:30:44.659Z,44.60
2022-08-09T16:33:15.720Z,44.70
2022-08-09T16:35:53.297Z,44.70
2022-08-09T16:38:26.232Z,44.70
2022-08-09T16:40:55.787Z,44.70
2022-08-09T16:43:24.119Z,44.60
2022-08-09T16:45:54.294Z,44.70
2022-08-09T16:48:38.160Z,44.70
2022-08-09T16:51:14.309Z,44.70
2022-08-09T16:54:02.287Z,44.80
2022-08-09T16:56:31.540Z,44.80
2022-08-09T16:58:59.423Z,44.90
2022-08-09T17:01:29.124Z,44.80
2022-08-09T17:04:01.873Z,44.80
2022-08-09T17:06:33.504Z,44.90
2022-08-09T17:09:45.116Z,44.90
2022-08-09T17:12:06.891Z,45.00
2022-08-09T17:14:35.335Z,45.00
2022-08-09T17:17:03.670Z,45.00
2022-08-09T17:20:12.614Z,45.00
2022-08-09T17:22:33.056Z,44.90
2022-08-09T17:25:03.075Z,45.00
2022-08-09T17:27:33.089Z,45.00
2022-08-09T17:30:04.695Z,44.90
2022-08-09T17:32:38.084Z,45.60
2022-08-09T17:35:11.791Z,45.00
2022-08-09T17:38:14.536Z,45.00
2022-08-09T17:40:28.532Z,45.00
2022-08-09T17:42:59.581Z,45.00
2022-08-09T17:46:03.356Z,45.00
2022-08-09T17:48:28.684Z,45.10
2022-08-09T17:51:00.923Z,45.10
2022-08-09T17:53:43.203Z,45.10
2022-08-09T17:56:18.240Z,45.20
2022-08-09T17:58:47.509Z,45.30
2022-08-09T18:01:22.736Z,45.30
2022-08-09T18:03:52.018Z,45.30
2022-08-09T18:06:32.471Z,45.30
2022-08-09T18:09:03.385Z,45.30
2022-08-09T18:11:47.145Z,45.30
2022-08-09T18:14:21.436Z,45.30
2022-08-09T18:16:49.817Z,45.40
2022-08-09T18:20:55.188Z,45.40
2022-08-09T18:22:06.344Z,45.40
2022-08-09T18:24:44.411Z,45.50
2022-08-09T18:27:14.053Z,45.50
2022-08-09T18:30:40.546Z,45.50
2022-08-09T18:32:54.444Z,45.50
2022-08-09T18:35:58.683Z,45.60
2022-08-09T18:38:11.734Z,45.60
2022-08-09T18:40:41.041Z,45.50
2022-08-09T18:43:08.802Z,45.60
2022-08-09T18:46:47.375Z,45.70
2022-08-09T18:48:30.315Z,45.60
2022-08-09T18:51:00.612Z,45.70
2022-08-09T18:53:34.560Z,45.70
2022-08-09T18:56:17.449Z,45.60
2022-08-09T18:58:47.685Z,45.60
2022-08-09T19:01:24.581Z,45.70
2022-08-09T19:04:00.925Z,45.70
2022-08-09T19:06:33.819Z,45.70
2022-08-09T19:09:02.457Z,45.70
2022-08-09T19:11:37.715Z,45.70
2022-08-09T19:14:06.633Z,45.70
2022-08-09T19:16:37.659Z,45.70
2022-08-09T19:19:23.606Z,45.70
2022-08-09T19:22:06.588Z,45.70
2022-08-09T19:25:03.237Z,45.70
2022-08-09T19:27:22.739Z,45.70
2022-08-09T19:30:21.477Z,45.70
2022-08-09T19:32:39.462Z,45.70
2022-08-09T19:35:08.325Z,45.70
2022-08-09T19:37:54.007Z,45.70
2022-08-09T19:40:22.808Z,45.70
2022-08-09T19:42:50.622Z,45.80
2022-08-09T19:45:18.789Z,45.70
2022-08-09T19:47:49.605Z,45.70
2022-08-09T19:50:49.250Z,45.70
2022-08-09T19:53:04.987Z,45.70
2022-08-09T19:55:52.952Z,45.80
2022-08-09T19:58:29.829Z,45.80
2022-08-09T20:00:58.045Z,45.80
2022-08-09T20:04:17.917Z,45.80
2022-08-09T20:06:22.297Z,45.80
2022-08-09T20:08:50.716Z,45.80
2022-08-09T20:11:18.447Z,45.70
2022-08-09T20:13:53.767Z,45.80
2022-08-09T20:16:33.755Z,45.80
2022-08-09T20:19:48.775Z,45.80
2022-08-09T20:21:57.369Z,45.70
2022-08-09T20:24:29.677Z,45.70
2022-08-09T20:27:02.388Z,45.70
2022-08-09T20:29:37.860Z,45.80
2022-08-09T20:32:40.187Z,45.80
2022-08-09T20:34:56.140Z,45.70
2022-08-09T20:37:24.692Z,45.80
2022-08-09T20:40:15.621Z,45.80
2022-08-09T20:42:40.077Z,45.80
2022-08-09T20:46:01.658Z,45.80
2022-08-09T20:48:09.012Z,45.80
2022-08-09T20:50:47.663Z,45.70
2022-08-09T20:53:35.373Z,45.70
2022-08-09T20:56:04.927Z,45.80
2022-08-09T20:58:33.186Z,45.80
2022-08-09T21:01:13.723Z,45.70
2022-08-09T21:05:49.013Z,45.80
2022-08-09T21:06:37.639Z,45.80
2022-08-09T21:09:11.646Z,45.80
2022-08-09T21:14:31.189Z,45.80
2022-08-09T21:17:00.357Z,45.80
2022-08-09T21:20:19.055Z,45.80
2022-08-09T21:22:36.272Z,45.80
2022-08-09T21:25:22.635Z,45.90
2022-08-09T21:27:53.448Z,45.90
2022-08-09T21:30:23.256Z,45.90
2022-08-09T21:32:52.825Z,45.90
2022-08-09T21:35:21.647Z,46.00
2022-08-09T21:37:59.245Z,45.90
2022-08-09T21:40:30.688Z,46.00
2022-08-09T21:42:58.803Z,46.00
2022-08-09T21:45:26.704Z,46.00
2022-08-09T21:47:54.407Z,46.00
2022-08-09T21:50:33.872Z,46.00
2022-08-09T21:53:15.546Z,46.00
2022-08-09T21:55:51.677Z,46.00
2022-08-09T21:58:19.354Z,46.00
2022-08-09T22:00:48.694Z,46.00
2022-08-09T22:03:25.453Z,46.00
2022-08-09T22:05:54.117Z,46.00
2022-08-09T22:08:25.469Z,46.00
2022-08-09T22:11:49.991Z,46.00
2022-08-09T22:13:43.169Z,46.10
2022-08-09T22:16:11.672Z,46.00
2022-08-09T22:18:52.981Z,46.00
2022-08-09T22:21:24.513Z,46.00
2022-08-09T22:24:01.291Z,46.10
2022-08-09T22:26:35.119Z,46.70
2022-08-09T22:29:07.622Z,46.10
2022-08-09T22:31:37.676Z,46.10
2022-08-09T22:34:09.690Z,46.10
2022-08-09T22:36:46.339Z,46.10
2022-08-09T22:39:46.700Z,46.10
2022-08-09T22:42:03.917Z,46.20
2022-08-09T22:44:34.256Z,46.30
2022-08-09T22:48:12.887Z,46.20
2022-08-09T22:49:52.153Z,46.20
2022-08-09T22:52:21.602Z,46.20
2022-08-09T22:54:53.507Z,46.30
2022-08-09T22:57:21.731Z,46.30
2022-08-09T22:59:57.246Z,46.30
2022-08-09T23:02:27.227Z,46.30
2022-08-09T23:04:56.900Z,46.30
2022-08-09T23:08:22.700Z,46.20
2022-08-09T23:10:31.656Z,46.30
2022-08-09T23:12:59.469Z,46.30
2022-08-09T23:15:27.426Z,46.20
2022-08-09T23:17:55.103Z,46.30
2022-08-09T23:20:22.983Z,46.30
2022-08-09T23:22:50.670Z,46.30
2022-08-09T23:25:18.323Z,46.30
2022-08-09T23:27:57.389Z,46.40
2022-08-09T23:30:34.964Z,46.40
2022-08-09T23:33:02.739Z,46.40
2022-08-09T23:35:30.422Z,46.40
2022-08-09T23:38:18.237Z,46.50
2022-08-09T23:40:45.918Z,46.50
2022-08-09T23:43:14.956Z,46.50
2022-08-09T23:45:42.630Z,46.50
2022-08-09T23:48:10.310Z,46.50
2022-08-09T23:50:38.009Z,46.60
2022-08-09T23:53:05.733Z,46.60
2022-08-09T23:55:37.809Z,46.60
2022-08-09T23:58:10.451Z,46.60
